Pilot Grove, MO (65276)

4:02 AM CST on December 25, 2014 (GMT -0600)
APRSWXNET Pilot Grove MO US | Change Station
CLOSE
Current Station
Personal Weather Station
Location: Pilot Grove, MO
Elevation: 885 ft
Nearby Weather Stations

Elev 885 ft 38.80 °N, 92.95 °W | Updated 27 minutes ago

Clear
Clear
31 °F
Feels Like 27 °F
N
4
Wind Variable Wind from SSE
Gusts 7.0 mph

Today
High -- | Low -- °F
--% Chance of Precip.
Yesterday
High -- | Low -- °F
Precip. -- in
7:28 AM 4:55 PM
Waxing Crescent, 15% visible
Pressure 29.87 in
Visibility 10.0 miles
Clouds Clear
Windchill 27 °F
Dew Point 28 °F
Humidity 90%
Rainfall 0.03 in
Snow Depth Not available.
UV 0 out of 12
Pollen .40 out of 12
Air Quality Not available.
Flu Activity Not available.
METAR KVER 250935Z AUTO 16006KT 10SM CLR M01/M01 A2987 RMK AO2 T10071012

More Conditions Fewer Conditions

Pressure 29.87 in
Visibility 10.0 miles
Clouds Clear
Windchill 27 °F
Dew Point 28 °F
Humidity 90%
Rainfall 0.03 in
Snow Depth Not available.
UV 0 out of 12
Pollen .40 out of 12
Air Quality Not available.
Flu Activity Not available.
METAR KVER 250935Z AUTO 16006KT 10SM CLR M01/M01 A2987 RMK AO2 T10071012

More Conditions Fewer Conditions

10-Day Weather Forecast

Almanac

Astronomy

Dec. 25, 2014 Rise Set
Actual Time
Civil Twilight
Nautical Twilight
Astronomical Twilight
Moon
Length of Visible Light
Length of Day
Tomorrow will be .
, % of the Moon is Illuminated

Today's Extremes

State Highs State Lows

Community

WunderPhotos

Upload Photos

1,780,253 photos uploaded!

WunderBlogs® & News

Nearby

Air Quality

  Air Quality AQ Index Pollutant
Not available.

Snow Depth

Station Depth Elevation

Earthquake Activity

City Distance Mag. Time & Date
Minimum magnitude displayed is 2.5.

Coastal Water Temperatures

Place Temperature

Nearby Weather Stations